createdAt,value
2017-06-28T00:01:40.151Z,5.75
2017-06-28T00:04:08.214Z,5.07
2017-06-28T00:06:36.320Z,4.93
2017-06-28T00:09:04.359Z,5.40
2017-06-28T00:11:32.413Z,5.07
2017-06-28T00:14:01.259Z,4.70
2017-06-28T00:16:29.318Z,4.50
2017-06-28T00:18:57.790Z,4.95
2017-06-28T00:21:26.250Z,5.07
2017-06-28T00:23:54.310Z,4.80
2017-06-28T00:26:22.789Z,4.65
2017-06-28T00:28:51.622Z,4.97
2017-06-28T00:31:19.722Z,5.20
2017-06-28T00:33:47.775Z,5.00
2017-06-28T00:36:16.594Z,4.85
2017-06-28T00:38:44.687Z,4.80
2017-06-28T00:41:13.516Z,4.45
2017-06-28T00:43:41.567Z,5.25
2017-06-28T00:46:09.645Z,5.57
2017-06-28T00:48:37.698Z,4.85
2017-06-28T00:51:05.782Z,5.22
2017-06-28T00:53:33.844Z,4.68
2017-06-28T00:56:01.925Z,5.00
2017-06-28T00:58:29.982Z,5.07
2017-06-28T01:00:58.801Z,5.32
2017-06-28T01:03:26.871Z,4.22
2017-06-28T01:59:15.854Z,4.40
2017-06-28T02:01:44.699Z,4.20
2017-06-28T02:04:12.766Z,5.30
2017-06-28T02:06:40.841Z,4.55
2017-06-28T02:09:09.438Z,4.60
2017-06-28T02:11:37.534Z,4.43
2017-06-28T02:14:05.666Z,4.53
2017-06-28T02:16:33.911Z,4.87
2017-06-28T02:19:02.014Z,4.72
2017-06-28T02:21:30.214Z,5.00
2017-06-28T02:23:58.366Z,4.30
2017-06-28T02:26:26.423Z,4.00
2017-06-28T02:28:54.514Z,3.92
2017-06-28T02:31:22.582Z,4.30
2017-06-28T02:33:50.663Z,4.70
2017-06-28T02:36:19.514Z,3.95
2017-06-28T02:38:47.578Z,3.90
2017-06-28T02:41:16.411Z,4.60
2017-06-28T02:43:44.890Z,4.20
2017-06-28T02:46:12.949Z,4.30
2017-06-28T02:48:41.006Z,4.60
2017-06-28T02:51:09.516Z,4.22
2017-06-28T02:53:37.611Z,4.37
2017-06-28T02:56:06.046Z,4.55
2017-06-28T02:58:34.133Z,4.40
2017-06-28T03:01:02.223Z,4.07
2017-06-28T03:03:30.277Z,4.03
2017-06-28T03:05:58.354Z,4.68
2017-06-28T03:08:26.822Z,5.05
2017-06-28T03:10:54.878Z,4.57
2017-06-28T03:13:22.966Z,4.30
2017-06-28T03:15:51.056Z,3.97
2017-06-28T03:18:19.506Z,5.20
2017-06-28T03:20:47.969Z,5.00
2017-06-28T03:23:16.822Z,4.50
2017-06-28T03:25:44.882Z,4.43
2017-06-28T03:28:12.939Z,5.82
2017-06-28T03:30:41.018Z,5.57
2017-06-28T03:33:09.490Z,5.65
2017-06-28T03:35:37.562Z,5.72
2017-06-28T03:38:05.618Z,6.37
2017-06-28T03:40:33.703Z,6.30
2017-06-28T03:43:02.175Z,6.18
2017-06-28T03:45:30.318Z,6.75
2017-06-28T03:47:59.150Z,7.00
2017-06-28T03:50:27.310Z,7.10
2017-06-28T03:52:55.394Z,6.65
2017-06-28T03:55:23.474Z,6.60
2017-06-28T03:57:51.551Z,7.30
2017-06-28T04:00:19.659Z,6.87
2017-06-28T04:02:47.717Z,6.10
2017-06-28T04:05:15.772Z,6.35
2017-06-28T04:07:43.855Z,6.37
2017-06-28T04:10:11.911Z,6.50
2017-06-28T04:12:39.969Z,6.30
2017-06-28T04:15:08.230Z,6.60
2017-06-28T04:17:36.291Z,6.45
2017-06-28T04:20:05.218Z,6.55
2017-06-28T04:22:33.295Z,6.72
2017-06-28T04:25:01.388Z,6.65
2017-06-28T04:27:29.538Z,7.05
2017-06-28T04:29:57.660Z,7.10
2017-06-28T04:32:25.755Z,6.55
2017-06-28T04:34:53.798Z,6.22
2017-06-28T04:37:22.658Z,6.62
2017-06-28T04:39:50.710Z,7.30
2017-06-28T04:42:19.531Z,6.62
2017-06-28T04:44:47.623Z,6.78
2017-06-28T04:47:16.170Z,8.23
2017-06-28T04:49:44.262Z,7.45
2017-06-28T04:52:12.362Z,7.47
2017-06-28T04:54:40.894Z,8.40
2017-06-28T04:57:09.366Z,7.55
2017-06-28T04:59:37.443Z,8.48
2017-06-28T05:02:05.499Z,8.80
2017-06-28T05:04:33.599Z,9.02
2017-06-28T05:07:02.055Z,8.70
2017-06-28T05:09:30.173Z,10.48
2017-06-28T05:11:58.253Z,8.38
2017-06-28T05:14:26.312Z,9.45
2017-06-28T05:16:54.402Z,10.05
2017-06-28T05:19:22.458Z,8.27
2017-06-28T05:21:50.518Z,8.18
2017-06-28T05:24:18.607Z,10.70
2017-06-28T05:26:46.686Z,9.13
2017-06-28T05:29:15.146Z,10.63
2017-06-28T05:31:43.254Z,10.43
2017-06-28T05:34:12.086Z,10.40
2017-06-28T05:36:40.163Z,11.20
2017-06-28T05:39:08.253Z,9.90
2017-06-28T05:41:36.706Z,9.00
2017-06-28T05:44:04.762Z,9.05
2017-06-28T05:46:32.862Z,10.48
2017-06-28T05:49:00.926Z,10.95
2017-06-28T05:51:30.125Z,10.50
2017-06-28T05:53:58.221Z,11.38
2017-06-28T05:56:26.290Z,12.40
2017-06-28T05:58:54.357Z,12.52
2017-06-28T06:01:22.503Z,12.40
2017-06-28T06:03:51.334Z,10.90
2017-06-28T06:06:19.399Z,12.23
2017-06-28T06:08:47.491Z,10.23
2017-06-28T06:11:16.043Z,10.98
2017-06-28T06:13:44.114Z,10.25
2017-06-28T06:16:12.202Z,9.13
2017-06-28T06:18:40.378Z,8.93
2017-06-28T06:21:08.817Z,8.38
2017-06-28T06:23:37.304Z,7.00
2017-06-28T06:26:05.390Z,7.28
2017-06-28T06:28:33.427Z,6.45
2017-06-28T06:31:01.948Z,7.35
2017-06-28T06:33:29.998Z,7.45
2017-06-28T06:35:58.062Z,6.93
2017-06-28T06:38:26.155Z,6.22
2017-06-28T06:40:54.265Z,5.93
2017-06-28T06:43:22.687Z,5.55
2017-06-28T06:45:51.526Z,4.40
2017-06-28T06:48:19.585Z,4.62
2017-06-28T06:50:47.666Z,4.70
2017-06-28T06:53:15.723Z,4.85
2017-06-28T06:55:43.893Z,4.68
2017-06-28T06:58:11.966Z,4.28
2017-06-28T07:00:40.136Z,4.40
2017-06-28T07:03:08.587Z,4.90
2017-06-28T07:05:36.646Z,5.32
2017-06-28T07:08:05.575Z,5.22
2017-06-28T07:10:33.651Z,5.00
2017-06-28T07:13:02.846Z,4.78
2017-06-28T07:15:31.384Z,5.53
2017-06-28T07:17:59.501Z,4.80
2017-06-28T07:20:28.367Z,4.87
2017-06-28T07:22:57.210Z,4.75
2017-06-28T07:25:26.179Z,4.90
2017-06-28T07:27:54.231Z,5.18
2017-06-28T07:30:22.291Z,4.25
2017-06-28T07:32:50.378Z,4.82
2017-06-28T07:35:18.439Z,4.35
2017-06-28T07:37:46.494Z,4.65
2017-06-28T07:40:14.965Z,4.60
2017-06-28T07:42:43.791Z,4.15
2017-06-28T07:45:12.271Z,4.35
2017-06-28T07:47:40.733Z,3.85
2017-06-28T07:50:09.658Z,3.53
2017-06-28T07:52:37.856Z,3.80
2017-06-28T07:55:06.314Z,3.65
2017-06-28T07:57:35.135Z,3.50
2017-06-28T08:00:03.218Z,3.53
2017-06-28T08:02:31.323Z,3.03
2017-06-28T08:04:59.346Z,2.78
2017-06-28T08:07:27.431Z,3.70
2017-06-28T08:09:56.254Z,3.20
2017-06-28T08:12:24.309Z,3.95
2017-06-28T08:14:53.163Z,4.12
2017-06-28T08:17:21.226Z,3.70
2017-06-28T08:19:50.040Z,3.67
2017-06-28T08:22:18.157Z,3.28
2017-06-28T08:24:46.227Z,3.47
2017-06-28T08:27:14.278Z,2.85
2017-06-28T08:29:43.126Z,3.00
2017-06-28T08:32:11.199Z,3.37
2017-06-28T08:34:39.262Z,2.92
2017-06-28T08:37:07.352Z,3.00
2017-06-28T08:39:35.410Z,3.00
2017-06-28T08:42:03.854Z,2.65
2017-06-28T08:44:31.943Z,2.80
2017-06-28T08:46:59.997Z,3.05
2017-06-28T08:49:28.054Z,2.85
2017-06-28T08:51:56.964Z,3.25
2017-06-28T08:54:25.049Z,3.12
2017-06-28T08:56:53.495Z,3.53
2017-06-28T08:59:22.320Z,2.75
2017-06-28T09:01:50.391Z,3.00
2017-06-28T09:04:18.487Z,3.15
2017-06-28T09:06:47.318Z,3.87
2017-06-28T09:09:15.770Z,3.45
2017-06-28T09:11:43.854Z,3.25
2017-06-28T09:14:11.983Z,3.10
2017-06-28T09:16:40.091Z,2.85
2017-06-28T09:19:09.007Z,3.20
2017-06-28T09:21:37.131Z,3.60
2017-06-28T09:24:06.006Z,3.40
2017-06-28T09:26:34.098Z,3.75
2017-06-28T09:29:02.925Z,7.18
2017-06-28T09:31:31.746Z,3.97
2017-06-28T09:34:00.819Z,4.05
2017-06-28T09:36:28.890Z,3.55
2017-06-28T09:38:57.722Z,3.58
2017-06-28T09:41:26.570Z,3.95
2017-06-28T09:43:55.399Z,4.28
2017-06-28T09:46:23.486Z,3.25
2017-06-28T09:48:51.580Z,3.12
2017-06-28T09:51:19.714Z,3.37
2017-06-28T09:53:48.178Z,3.20
2017-06-28T09:56:16.277Z,3.40
2017-06-28T09:58:44.323Z,3.25
2017-06-28T10:01:12.822Z,2.80
2017-06-28T10:03:40.885Z,4.43
2017-06-28T10:06:08.939Z,5.90
2017-06-28T10:08:37.026Z,4.93
2017-06-28T10:11:05.074Z,4.53
2017-06-28T10:13:33.159Z,3.75
2017-06-28T10:16:01.257Z,3.70
2017-06-28T10:18:29.362Z,3.70
2017-06-28T10:20:57.499Z,3.70
2017-06-28T10:23:26.131Z,3.90
2017-06-28T10:25:54.250Z,3.50
2017-06-28T10:28:22.339Z,2.75
2017-06-28T10:30:51.208Z,2.92
2017-06-28T10:33:19.355Z,2.90
2017-06-28T10:35:47.808Z,3.42
2017-06-28T10:38:15.862Z,2.70
2017-06-28T10:40:43.931Z,3.08
2017-06-28T10:43:12.010Z,3.17
2017-06-28T10:45:40.098Z,2.90
2017-06-28T10:48:08.194Z,3.03
2017-06-28T10:50:36.263Z,3.12
2017-06-28T10:53:04.345Z,2.58
2017-06-28T10:55:32.483Z,2.85
2017-06-28T10:58:00.523Z,3.05
2017-06-28T11:00:28.579Z,2.50
2017-06-28T11:02:56.707Z,2.95
2017-06-28T11:05:24.791Z,2.97
2017-06-28T11:07:52.894Z,3.10
2017-06-28T11:10:20.949Z,3.17
2017-06-28T11:12:49.807Z,4.00
2017-06-28T11:15:17.874Z,4.00
2017-06-28T11:17:45.989Z,4.40
2017-06-28T11:20:14.857Z,4.47
2017-06-28T11:22:42.954Z,5.18
2017-06-28T11:25:11.795Z,4.03
2017-06-28T11:27:39.867Z,3.90
2017-06-28T11:30:07.942Z,3.92
2017-06-28T11:32:36.038Z,4.12
2017-06-28T11:35:04.862Z,4.05
2017-06-28T11:37:32.914Z,3.75
2017-06-28T11:40:01.766Z,3.30
2017-06-28T11:42:29.843Z,3.40
2017-06-28T11:44:57.922Z,3.17
2017-06-28T11:47:26.002Z,3.10
2017-06-28T11:49:54.159Z,2.75
2017-06-28T11:52:22.202Z,2.45
2017-06-28T11:54:50.295Z,2.70
2017-06-28T11:57:18.405Z,3.72
2017-06-28T11:59:47.234Z,3.00
2017-06-28T12:02:15.367Z,2.90
2017-06-28T12:04:43.440Z,2.42
2017-06-28T12:07:11.538Z,2.90
2017-06-28T12:09:39.603Z,2.00
2017-06-28T12:12:07.664Z,2.08
2017-06-28T12:14:36.502Z,1.75
2017-06-28T12:17:04.590Z,2.30
2017-06-28T12:19:32.674Z,2.42
2017-06-28T12:22:00.734Z,2.50
2017-06-28T12:24:28.786Z,2.28
2017-06-28T12:26:56.961Z,2.03
2017-06-28T12:29:25.014Z,2.10
2017-06-28T12:31:53.201Z,2.20
2017-06-28T12:34:21.336Z,2.58
2017-06-28T12:36:49.382Z,1.98
2017-06-28T12:39:17.448Z,1.48
2017-06-28T12:41:45.521Z,1.58
2017-06-28T12:44:13.570Z,1.80
2017-06-28T12:46:41.699Z,1.90
2017-06-28T12:49:09.759Z,1.73
2017-06-28T12:51:38.578Z,1.85
2017-06-28T12:54:06.655Z,2.50
2017-06-28T12:56:34.732Z,3.00
2017-06-28T12:59:02.803Z,3.05
2017-06-28T13:01:30.896Z,3.80
2017-06-28T13:03:58.950Z,3.10
2017-06-28T13:06:27.014Z,3.15
2017-06-28T13:08:55.124Z,2.58
2017-06-28T13:11:23.197Z,2.65
2017-06-28T13:13:51.303Z,2.12
2017-06-28T13:16:20.248Z,2.47
2017-06-28T13:18:48.324Z,2.40
2017-06-28T13:21:16.382Z,1.85
2017-06-28T13:23:44.481Z,1.48
2017-06-28T13:26:12.547Z,1.00
2017-06-28T13:28:40.629Z,1.40
2017-06-28T13:31:08.713Z,0.90
2017-06-28T13:33:36.844Z,1.12
2017-06-28T13:36:04.930Z,1.42
2017-06-28T13:38:33.820Z,1.25
2017-06-28T13:41:01.940Z,1.40
2017-06-28T13:43:30.826Z,1.35
2017-06-28T13:45:59.753Z,1.73
2017-06-28T13:48:27.854Z,1.60
2017-06-28T13:50:56.006Z,2.08
2017-06-28T13:53:24.122Z,1.58
2017-06-28T13:55:52.173Z,1.50
2017-06-28T13:58:20.282Z,1.67
2017-06-28T14:00:49.151Z,1.85
2017-06-28T14:03:17.273Z,1.50
2017-06-28T14:05:46.161Z,1.70
2017-06-28T14:08:14.295Z,2.10
2017-06-28T14:10:42.475Z,1.87
2017-06-28T14:13:10.588Z,1.50
2017-06-28T14:15:38.706Z,1.67
2017-06-28T14:18:06.781Z,1.50
2017-06-28T14:20:34.887Z,1.40
2017-06-28T14:23:02.956Z,1.58
2017-06-28T14:25:31.864Z,2.03
2017-06-28T14:28:00.701Z,1.40
2017-06-28T14:30:28.807Z,1.70
2017-06-28T14:32:57.647Z,1.83
2017-06-28T14:38:00.702Z,1.58
2017-06-28T14:40:29.522Z,1.40
2017-06-28T14:42:58.081Z,1.23
2017-06-28T14:45:26.934Z,1.52
2017-06-28T14:47:55.040Z,1.05
2017-06-28T14:50:23.133Z,1.20
2017-06-28T14:52:51.263Z,1.00
2017-06-28T14:55:20.237Z,1.48
2017-06-28T14:57:48.314Z,1.20
2017-06-28T15:00:16.371Z,1.00
2017-06-28T15:02:44.431Z,1.10
2017-06-28T15:05:12.527Z,1.00
2017-06-28T15:07:40.626Z,1.10
2017-06-28T15:10:09.455Z,1.20
2017-06-28T15:12:37.549Z,0.95
2017-06-28T15:15:05.592Z,1.50
2017-06-28T15:17:33.679Z,0.95
2017-06-28T15:20:01.736Z,1.23
2017-06-28T15:22:29.862Z,1.12
2017-06-28T15:24:57.988Z,1.15
2017-06-28T15:27:26.064Z,1.10
2017-06-28T15:29:54.154Z,1.30
2017-06-28T15:32:22.243Z,1.65
2017-06-28T15:34:50.340Z,1.23
2017-06-28T15:37:19.197Z,1.10
2017-06-28T15:39:47.267Z,1.60
2017-06-28T15:42:15.327Z,1.20
2017-06-28T15:44:43.391Z,1.23
2017-06-28T15:47:11.506Z,1.55
2017-06-28T15:49:39.603Z,1.33
2017-06-28T15:52:08.456Z,1.42
2017-06-28T15:54:36.534Z,1.23
2017-06-28T15:57:04.590Z,1.35
2017-06-28T15:59:32.647Z,1.35
2017-06-28T16:02:00.725Z,1.87
2017-06-28T16:04:28.811Z,1.77
2017-06-28T16:06:57.651Z,1.20
2017-06-28T16:09:25.716Z,1.20
2017-06-28T16:11:53.789Z,1.10
2017-06-28T16:14:21.846Z,1.27
2017-06-28T16:16:50.670Z,1.20
2017-06-28T16:19:18.762Z,1.85
2017-06-28T16:21:46.826Z,1.35
2017-06-28T16:24:14.883Z,1.40
2017-06-28T16:26:43.281Z,1.27
2017-06-28T16:29:11.338Z,1.67
2017-06-28T16:31:39.449Z,1.62
2017-06-28T16:34:07.576Z,1.73
2017-06-28T16:36:35.638Z,1.48
2017-06-28T16:39:03.709Z,1.42
2017-06-28T16:41:31.836Z,1.40
2017-06-28T16:43:59.867Z,1.40
2017-06-28T16:46:27.979Z,1.50
2017-06-28T16:48:56.039Z,1.05
2017-06-28T16:51:24.102Z,1.30
2017-06-28T16:53:52.183Z,1.62
2017-06-28T16:56:20.239Z,1.30
2017-06-28T16:58:48.316Z,1.60
2017-06-28T17:01:16.394Z,1.30
2017-06-28T17:03:44.455Z,1.30
2017-06-28T17:06:12.527Z,1.35
2017-06-28T17:08:40.618Z,1.50
2017-06-28T17:11:08.703Z,1.40
2017-06-28T17:13:36.798Z,1.40
2017-06-28T17:16:05.614Z,1.55
2017-06-28T17:18:33.751Z,1.30
2017-06-28T17:21:02.595Z,1.60
2017-06-28T17:23:30.694Z,1.50
2017-06-28T17:25:58.812Z,1.30
2017-06-28T17:28:26.885Z,1.58
2017-06-28T17:30:54.974Z,1.52
2017-06-28T17:33:23.115Z,1.25
2017-06-28T17:35:51.184Z,1.42
2017-06-28T17:38:20.087Z,1.45
2017-06-28T17:40:48.185Z,1.50
2017-06-28T17:43:16.302Z,1.10
2017-06-28T17:45:44.354Z,1.30
2017-06-28T17:48:12.411Z,1.25
2017-06-28T17:50:40.467Z,1.15
2017-06-28T17:53:08.580Z,1.50
2017-06-28T17:55:36.623Z,1.25
2017-06-28T17:58:04.727Z,1.40
2017-06-28T18:00:32.821Z,1.33
2017-06-28T18:03:01.761Z,1.50
2017-06-28T18:08:04.367Z,1.55
2017-06-28T18:10:32.503Z,1.40
2017-06-28T18:13:00.574Z,1.50
2017-06-28T18:15:28.654Z,1.40
2017-06-28T18:17:56.746Z,1.40
2017-06-28T18:20:24.823Z,1.62
2017-06-28T18:22:52.907Z,1.35
2017-06-28T18:25:21.021Z,1.40
2017-06-28T18:27:49.091Z,1.40
2017-06-28T18:30:17.258Z,1.58
2017-06-28T18:32:45.320Z,1.77
2017-06-28T18:35:13.386Z,1.65
2017-06-28T18:37:41.499Z,1.50
2017-06-28T18:40:09.583Z,1.30
2017-06-28T18:42:37.635Z,1.20
2017-06-28T18:45:05.725Z,1.23
2017-06-28T18:47:33.782Z,1.50
2017-06-28T18:50:01.839Z,1.23
2017-06-28T18:52:29.936Z,1.33
2017-06-28T18:54:57.983Z,1.37
2017-06-28T18:57:26.069Z,1.10
2017-06-28T18:59:54.142Z,1.42
2017-06-28T19:02:22.198Z,1.30
2017-06-28T19:04:50.258Z,1.15
2017-06-28T19:07:18.351Z,1.35
2017-06-28T19:09:46.406Z,1.50
2017-06-28T19:12:14.499Z,1.45
2017-06-28T19:14:43.790Z,1.27
2017-06-28T19:17:11.845Z,1.30
2017-06-28T19:19:39.909Z,1.55
2017-06-28T19:22:08.035Z,1.40
2017-06-28T19:24:36.116Z,1.58
2017-06-28T19:27:04.945Z,1.87
2017-06-28T19:29:33.107Z,1.20
2017-06-28T19:32:01.957Z,1.35
2017-06-28T19:34:30.045Z,1.52
2017-06-28T19:36:58.970Z,1.70
2017-06-28T19:39:27.056Z,1.40
2017-06-28T19:41:55.160Z,1.75
2017-06-28T19:44:23.314Z,1.45
2017-06-28T19:46:51.372Z,2.17
2017-06-28T19:49:19.449Z,2.00
2017-06-28T19:51:47.514Z,2.33
2017-06-28T19:54:15.620Z,1.70
2017-06-28T19:56:43.682Z,1.70
2017-06-28T19:59:12.192Z,2.62
2017-06-28T20:01:40.321Z,2.03
2017-06-28T20:04:08.398Z,1.70
2017-06-28T20:06:36.448Z,1.65
2017-06-28T20:09:04.559Z,2.00
2017-06-28T20:11:32.622Z,5.05
2017-06-28T20:14:00.825Z,9.05
2017-06-28T20:16:29.747Z,6.57
2017-06-28T20:18:58.631Z,7.62
2017-06-28T20:21:26.702Z,4.72
2017-06-28T20:23:54.795Z,4.12
2017-06-28T20:26:22.883Z,3.95
2017-06-28T20:28:50.957Z,2.08
2017-06-28T20:31:19.031Z,2.12
2017-06-28T20:33:47.855Z,1.80
2017-06-28T20:36:15.911Z,2.08
2017-06-28T20:38:44.004Z,2.05
2017-06-28T20:41:12.826Z,2.08
2017-06-28T20:43:40.959Z,2.03
2017-06-28T20:46:09.062Z,2.40
2017-06-28T20:48:37.126Z,2.30
2017-06-28T20:51:06.015Z,2.08
2017-06-28T20:53:34.838Z,2.05
2017-06-28T20:56:02.895Z,2.60
2017-06-28T20:58:31.024Z,2.33
2017-06-28T21:00:59.071Z,2.60
2017-06-28T21:03:27.124Z,2.72
2017-06-28T21:05:55.294Z,2.72
2017-06-28T21:08:23.387Z,2.95
2017-06-28T21:10:51.559Z,2.50
2017-06-28T21:13:21.084Z,2.62
2017-06-28T21:15:49.158Z,2.33
2017-06-28T21:18:17.302Z,2.95
2017-06-28T21:20:45.446Z,2.55
2017-06-28T21:23:13.559Z,2.30
2017-06-28T21:25:41.740Z,2.40
2017-06-28T21:28:09.868Z,2.42
2017-06-28T21:30:37.923Z,1.80
2017-06-28T21:33:06.750Z,2.33
2017-06-28T21:35:34.835Z,2.15
2017-06-28T21:38:02.915Z,2.15
2017-06-28T21:40:30.966Z,2.10
2017-06-28T21:42:59.071Z,2.53
2017-06-28T21:45:27.161Z,1.80
2017-06-28T21:47:55.294Z,1.85
2017-06-28T21:50:23.366Z,2.15
2017-06-28T21:52:51.444Z,2.30
2017-06-28T21:55:19.538Z,2.20
2017-06-28T21:57:47.601Z,2.55
2017-06-28T22:00:15.687Z,2.22
2017-06-28T22:02:43.751Z,2.00
2017-06-28T22:05:11.810Z,2.05
2017-06-28T22:07:39.918Z,2.15
2017-06-28T22:10:08.765Z,1.85
2017-06-28T22:12:37.214Z,2.00
2017-06-28T22:15:05.315Z,2.20
2017-06-28T22:17:38.214Z,2.17
2017-06-28T22:20:06.310Z,1.90
2017-06-28T22:22:34.373Z,2.40
2017-06-28T22:25:02.431Z,2.10
2017-06-28T22:27:30.602Z,2.25
2017-06-28T22:29:59.478Z,2.40
2017-06-28T22:32:27.582Z,2.60
2017-06-28T22:34:56.456Z,2.60
2017-06-28T22:37:24.565Z,2.25
2017-06-28T22:39:53.395Z,2.62
2017-06-28T22:42:21.454Z,2.03
2017-06-28T22:44:49.949Z,2.12
2017-06-28T22:47:18.014Z,2.10
2017-06-28T22:49:46.094Z,2.12
2017-06-28T22:52:14.155Z,1.83
2017-06-28T22:54:42.658Z,2.28
2017-06-28T22:57:10.714Z,2.30
2017-06-28T22:59:39.551Z,2.75
2017-06-28T23:02:07.639Z,2.50
2017-06-28T23:04:36.483Z,2.28
2017-06-28T23:07:04.958Z,2.03
2017-06-28T23:09:33.480Z,2.10
2017-06-28T23:12:01.580Z,2.20
2017-06-28T23:14:30.446Z,2.22
2017-06-28T23:16:58.582Z,2.87
2017-06-28T23:19:26.622Z,2.22
2017-06-28T23:21:55.079Z,2.95
2017-06-28T23:24:23.928Z,3.00
2017-06-28T23:26:52.415Z,2.58
2017-06-28T23:29:20.509Z,2.58
2017-06-28T23:31:48.590Z,2.87
2017-06-28T23:34:17.411Z,2.58
2017-06-28T23:36:45.528Z,2.60
2017-06-28T23:39:13.591Z,2.30
2017-06-28T23:41:42.054Z,2.20
2017-06-28T23:44:10.154Z,1.92
2017-06-28T23:46:38.985Z,2.70
2017-06-28T23:49:07.802Z,2.65
2017-06-28T23:51:35.907Z,2.95
2017-06-28T23:54:03.963Z,2.55
2017-06-28T23:56:32.018Z,2.15
2017-06-28T23:59:00.108Z,2.65
